sensor_id;sensor_type;location;lat;lon;timestamp;P1;durP1;ratioP1;P2;durP2;ratioP2
40122;SDS011;25832;45.490;4.912;2023-04-03T00:00:47;4.32;;;1.80;;
40122;SDS011;25832;45.490;4.912;2023-04-03T00:03:14;4.13;;;2.53;;
40122;SDS011;25832;45.490;4.912;2023-04-03T00:05:40;7.55;;;2.53;;
40122;SDS011;25832;45.490;4.912;2023-04-03T00:08:06;3.70;;;1.77;;
40122;SDS011;25832;45.490;4.912;2023-04-03T00:10:34;4.22;;;2.05;;
40122;SDS011;25832;45.490;4.912;2023-04-03T00:13:02;4.63;;;2.30;;
40122;SDS011;25832;45.490;4.912;2023-04-03T00:15:28;6.43;;;2.33;;
40122;SDS011;25832;45.490;4.912;2023-04-03T00:17:54;3.50;;;1.95;;
40122;SDS011;25832;45.490;4.912;2023-04-03T00:20:20;6.13;;;2.78;;
40122;SDS011;25832;45.490;4.912;2023-04-03T00:22:46;7.68;;;3.10;;
40122;SDS011;25832;45.490;4.912;2023-04-03T00:25:11;4.82;;;2.60;;
40122;SDS011;25832;45.490;4.912;2023-04-03T00:27:37;5.38;;;2.90;;
40122;SDS011;25832;45.490;4.912;2023-04-03T00:30:05;4.20;;;2.30;;
40122;SDS011;25832;45.490;4.912;2023-04-03T00:32:32;9.63;;;3.15;;
40122;SDS011;25832;45.490;4.912;2023-04-03T00:34:58;3.75;;;2.22;;
40122;SDS011;25832;45.490;4.912;2023-04-03T00:37:24;4.35;;;2.67;;
40122;SDS011;25832;45.490;4.912;2023-04-03T00:39:50;5.82;;;2.47;;
40122;SDS011;25832;45.490;4.912;2023-04-03T00:42:16;8.93;;;3.20;;
40122;SDS011;25832;45.490;4.912;2023-04-03T00:47:09;5.63;;;2.47;;
40122;SDS011;25832;45.490;4.912;2023-04-03T00:49:38;8.93;;;3.10;;
40122;SDS011;25832;45.490;4.912;2023-04-03T00:52:05;5.95;;;2.75;;
40122;SDS011;25832;45.490;4.912;2023-04-03T00:54:33;6.53;;;2.33;;
40122;SDS011;25832;45.490;4.912;2023-04-03T00:57:01;3.75;;;2.30;;
40122;SDS011;25832;45.490;4.912;2023-04-03T00:59:30;7.47;;;3.33;;
40122;SDS011;25832;45.490;4.912;2023-04-03T01:01:59;3.92;;;2.28;;
40122;SDS011;25832;45.490;4.912;2023-04-03T01:04:36;4.13;;;2.28;;
40122;SDS011;25832;45.490;4.912;2023-04-03T01:07:10;5.45;;;2.83;;
40122;SDS011;25832;45.490;4.912;2023-04-03T01:09:40;7.22;;;2.20;;
40122;SDS011;25832;45.490;4.912;2023-04-03T01:14:42;5.43;;;2.00;;
40122;SDS011;25832;45.490;4.912;2023-04-03T01:19:52;4.15;;;2.00;;
40122;SDS011;25832;45.490;4.912;2023-04-03T01:25:22;2.92;;;1.45;;
40122;SDS011;25832;45.490;4.912;2023-04-03T01:27:49;4.53;;;2.17;;
40122;SDS011;25832;45.490;4.912;2023-04-03T01:30:16;5.00;;;1.70;;
40122;SDS011;25832;45.490;4.912;2023-04-03T01:32:43;2.35;;;1.60;;
40122;SDS011;25832;45.490;4.912;2023-04-03T01:35:10;5.63;;;1.77;;
40122;SDS011;25832;45.490;4.912;2023-04-03T01:37:36;5.57;;;1.63;;
40122;SDS011;25832;45.490;4.912;2023-04-03T01:40:02;3.05;;;1.80;;
40122;SDS011;25832;45.490;4.912;2023-04-03T01:42:28;4.50;;;2.35;;
40122;SDS011;25832;45.490;4.912;2023-04-03T01:44:54;3.78;;;1.98;;
40122;SDS011;25832;45.490;4.912;2023-04-03T01:47:20;4.15;;;1.80;;
40122;SDS011;25832;45.490;4.912;2023-04-03T01:49:46;4.45;;;2.00;;
40122;SDS011;25832;45.490;4.912;2023-04-03T01:52:12;3.65;;;2.25;;
40122;SDS011;25832;45.490;4.912;2023-04-03T01:54:38;5.35;;;2.92;;
40122;SDS011;25832;45.490;4.912;2023-04-03T01:57:03;2.83;;;2.05;;
40122;SDS011;25832;45.490;4.912;2023-04-03T01:59:29;3.42;;;2.22;;
40122;SDS011;25832;45.490;4.912;2023-04-03T02:01:55;3.45;;;2.15;;
40122;SDS011;25832;45.490;4.912;2023-04-03T02:04:20;3.78;;;2.28;;
40122;SDS011;25832;45.490;4.912;2023-04-03T02:06:46;5.13;;;2.55;;
40122;SDS011;25832;45.490;4.912;2023-04-03T02:09:12;3.22;;;2.08;;
40122;SDS011;25832;45.490;4.912;2023-04-03T02:11:38;4.43;;;2.13;;
40122;SDS011;25832;45.490;4.912;2023-04-03T02:14:03;3.47;;;2.00;;
40122;SDS011;25832;45.490;4.912;2023-04-03T02:16:29;2.50;;;1.98;;
40122;SDS011;25832;45.490;4.912;2023-04-03T02:18:55;5.05;;;2.35;;
40122;SDS011;25832;45.490;4.912;2023-04-03T02:21:21;5.05;;;2.85;;
40122;SDS011;25832;45.490;4.912;2023-04-03T02:23:47;3.85;;;2.42;;
40122;SDS011;25832;45.490;4.912;2023-04-03T02:26:14;2.70;;;1.80;;
40122;SDS011;25832;45.490;4.912;2023-04-03T02:28:40;3.22;;;2.22;;
40122;SDS011;25832;45.490;4.912;2023-04-03T02:31:06;6.72;;;2.25;;
40122;SDS011;25832;45.490;4.912;2023-04-03T02:33:33;3.88;;;2.28;;
40122;SDS011;25832;45.490;4.912;2023-04-03T02:36:03;3.35;;;2.10;;
40122;SDS011;25832;45.490;4.912;2023-04-03T02:38:30;3.80;;;1.92;;
40122;SDS011;25832;45.490;4.912;2023-04-03T02:41:06;3.00;;;1.77;;
40122;SDS011;25832;45.490;4.912;2023-04-03T02:43:33;3.60;;;1.98;;
40122;SDS011;25832;45.490;4.912;2023-04-03T02:45:59;3.55;;;2.17;;
40122;SDS011;25832;45.490;4.912;2023-04-03T02:48:25;3.60;;;2.50;;
40122;SDS011;25832;45.490;4.912;2023-04-03T02:50:51;3.17;;;1.63;;
40122;SDS011;25832;45.490;4.912;2023-04-03T02:53:17;6.10;;;2.60;;
40122;SDS011;25832;45.490;4.912;2023-04-03T02:55:43;12.55;;;4.95;;
40122;SDS011;25832;45.490;4.912;2023-04-03T02:58:09;7.63;;;5.00;;
40122;SDS011;25832;45.490;4.912;2023-04-03T03:00:35;5.47;;;4.32;;
40122;SDS011;25832;45.490;4.912;2023-04-03T03:03:01;9.75;;;5.55;;
40122;SDS011;25832;45.490;4.912;2023-04-03T03:05:27;8.88;;;3.17;;
40122;SDS011;25832;45.490;4.912;2023-04-03T03:07:53;5.10;;;2.95;;
40122;SDS011;25832;45.490;4.912;2023-04-03T03:10:19;8.68;;;3.17;;
40122;SDS011;25832;45.490;4.912;2023-04-03T03:12:45;3.67;;;2.47;;
40122;SDS011;25832;45.490;4.912;2023-04-03T03:15:11;4.38;;;1.77;;
40122;SDS011;25832;45.490;4.912;2023-04-03T03:17:37;5.55;;;2.20;;
40122;SDS011;25832;45.490;4.912;2023-04-03T03:20:04;3.45;;;1.95;;
40122;SDS011;25832;45.490;4.912;2023-04-03T03:22:30;3.80;;;2.53;;
40122;SDS011;25832;45.490;4.912;2023-04-03T03:24:56;3.40;;;2.15;;
40122;SDS011;25832;45.490;4.912;2023-04-03T03:27:22;3.67;;;2.08;;
40122;SDS011;25832;45.490;4.912;2023-04-03T03:29:48;3.38;;;1.67;;
40122;SDS011;25832;45.490;4.912;2023-04-03T03:32:14;2.80;;;1.70;;
40122;SDS011;25832;45.490;4.912;2023-04-03T03:34:40;3.28;;;1.92;;
40122;SDS011;25832;45.490;4.912;2023-04-03T03:37:06;2.97;;;1.45;;
40122;SDS011;25832;45.490;4.912;2023-04-03T03:39:31;2.60;;;1.58;;
40122;SDS011;25832;45.490;4.912;2023-04-03T03:41:57;2.75;;;1.70;;
40122;SDS011;25832;45.490;4.912;2023-04-03T03:44:23;4.15;;;1.60;;
40122;SDS011;25832;45.490;4.912;2023-04-03T03:46:48;3.78;;;1.95;;
40122;SDS011;25832;45.490;4.912;2023-04-03T03:49:14;2.10;;;1.50;;
40122;SDS011;25832;45.490;4.912;2023-04-03T03:51:40;3.33;;;2.08;;
40122;SDS011;25832;45.490;4.912;2023-04-03T03:54:05;7.55;;;2.50;;
40122;SDS011;25832;45.490;4.912;2023-04-03T03:56:32;4.47;;;2.33;;
40122;SDS011;25832;45.490;4.912;2023-04-03T03:58:58;3.47;;;2.00;;
40122;SDS011;25832;45.490;4.912;2023-04-03T04:01:24;4.05;;;2.03;;
40122;SDS011;25832;45.490;4.912;2023-04-03T04:03:50;3.67;;;2.42;;
40122;SDS011;25832;45.490;4.912;2023-04-03T04:06:16;4.35;;;2.83;;
40122;SDS011;25832;45.490;4.912;2023-04-03T04:08:42;5.30;;;3.45;;
40122;SDS011;25832;45.490;4.912;2023-04-03T04:11:08;4.25;;;3.38;;
40122;SDS011;25832;45.490;4.912;2023-04-03T04:13:34;2.70;;;2.00;;
40122;SDS011;25832;45.490;4.912;2023-04-03T04:16:00;6.78;;;3.08;;
40122;SDS011;25832;45.490;4.912;2023-04-03T04:18:26;3.63;;;2.33;;
40122;SDS011;25832;45.490;4.912;2023-04-03T04:20:52;5.53;;;3.40;;
40122;SDS011;25832;45.490;4.912;2023-04-03T04:23:17;6.47;;;3.92;;
40122;SDS011;25832;45.490;4.912;2023-04-03T04:25:47;4.00;;;2.80;;
40122;SDS011;25832;45.490;4.912;2023-04-03T04:28:13;5.17;;;3.00;;
40122;SDS011;25832;45.490;4.912;2023-04-03T04:30:39;5.28;;;3.28;;
40122;SDS011;25832;45.490;4.912;2023-04-03T04:33:05;5.22;;;3.50;;
40122;SDS011;25832;45.490;4.912;2023-04-03T04:35:31;5.10;;;3.25;;
40122;SDS011;25832;45.490;4.912;2023-04-03T04:37:58;7.70;;;4.78;;
40122;SDS011;25832;45.490;4.912;2023-04-03T04:40:23;7.13;;;4.70;;
40122;SDS011;25832;45.490;4.912;2023-04-03T04:42:49;10.45;;;6.95;;
40122;SDS011;25832;45.490;4.912;2023-04-03T04:45:15;8.32;;;4.82;;
40122;SDS011;25832;45.490;4.912;2023-04-03T04:47:41;8.05;;;5.18;;
40122;SDS011;25832;45.490;4.912;2023-04-03T04:50:07;9.55;;;6.47;;
40122;SDS011;25832;45.490;4.912;2023-04-03T04:52:33;7.63;;;4.97;;
40122;SDS011;25832;45.490;4.912;2023-04-03T04:54:59;8.77;;;5.47;;
40122;SDS011;25832;45.490;4.912;2023-04-03T04:57:25;6.55;;;4.50;;
40122;SDS011;25832;45.490;4.912;2023-04-03T04:59:50;7.03;;;4.97;;
40122;SDS011;25832;45.490;4.912;2023-04-03T05:02:16;8.10;;;5.45;;
40122;SDS011;25832;45.490;4.912;2023-04-03T05:04:42;7.13;;;5.18;;
40122;SDS011;25832;45.490;4.912;2023-04-03T05:07:08;8.55;;;5.05;;
40122;SDS011;25832;45.490;4.912;2023-04-03T05:09:33;8.27;;;5.72;;
40122;SDS011;25832;45.490;4.912;2023-04-03T05:11:59;9.60;;;6.38;;
40122;SDS011;25832;45.490;4.912;2023-04-03T05:14:25;7.80;;;4.93;;
40122;SDS011;25832;45.490;4.912;2023-04-03T05:16:51;8.48;;;5.20;;
40122;SDS011;25832;45.490;4.912;2023-04-03T05:19:19;9.50;;;6.10;;
40122;SDS011;25832;45.490;4.912;2023-04-03T05:21:47;8.32;;;5.53;;
40122;SDS011;25832;45.490;4.912;2023-04-03T05:24:14;8.38;;;5.82;;
40122;SDS011;25832;45.490;4.912;2023-04-03T05:26:41;10.10;;;6.18;;
40122;SDS011;25832;45.490;4.912;2023-04-03T05:29:06;8.43;;;6.22;;
40122;SDS011;25832;45.490;4.912;2023-04-03T05:31:32;9.05;;;6.45;;
40122;SDS011;25832;45.490;4.912;2023-04-03T05:33:58;8.93;;;6.57;;
40122;SDS011;25832;45.490;4.912;2023-04-03T05:36:24;10.30;;;7.07;;
40122;SDS011;25832;45.490;4.912;2023-04-03T05:38:50;10.13;;;6.95;;
40122;SDS011;25832;45.490;4.912;2023-04-03T05:41:16;11.02;;;7.25;;
40122;SDS011;25832;45.490;4.912;2023-04-03T05:43:42;14.40;;;8.00;;
40122;SDS011;25832;45.490;4.912;2023-04-03T05:46:14;11.80;;;8.68;;
40122;SDS011;25832;45.490;4.912;2023-04-03T05:48:41;10.88;;;7.65;;
40122;SDS011;25832;45.490;4.912;2023-04-03T05:51:09;11.85;;;7.63;;
40122;SDS011;25832;45.490;4.912;2023-04-03T05:53:41;11.73;;;7.82;;
40122;SDS011;25832;45.490;4.912;2023-04-03T05:56:08;12.55;;;8.02;;
40122;SDS011;25832;45.490;4.912;2023-04-03T05:58:33;12.38;;;8.35;;
40122;SDS011;25832;45.490;4.912;2023-04-03T06:00:59;11.00;;;6.82;;
40122;SDS011;25832;45.490;4.912;2023-04-03T06:03:25;12.90;;;7.57;;
40122;SDS011;25832;45.490;4.912;2023-04-03T06:05:51;12.85;;;7.47;;
40122;SDS011;25832;45.490;4.912;2023-04-03T06:08:17;11.43;;;7.28;;
40122;SDS011;25832;45.490;4.912;2023-04-03T06:10:43;12.80;;;8.07;;
40122;SDS011;25832;45.490;4.912;2023-04-03T06:13:09;15.10;;;7.55;;
40122;SDS011;25832;45.490;4.912;2023-04-03T06:15:35;13.45;;;7.60;;
40122;SDS011;25832;45.490;4.912;2023-04-03T06:18:01;13.00;;;8.25;;
40122;SDS011;25832;45.490;4.912;2023-04-03T06:20:27;14.05;;;8.00;;
40122;SDS011;25832;45.490;4.912;2023-04-03T06:22:53;13.48;;;8.25;;
40122;SDS011;25832;45.490;4.912;2023-04-03T06:25:18;10.98;;;7.32;;
40122;SDS011;25832;45.490;4.912;2023-04-03T06:27:44;15.88;;;8.68;;
40122;SDS011;25832;45.490;4.912;2023-04-03T06:30:10;13.57;;;8.43;;
40122;SDS011;25832;45.490;4.912;2023-04-03T06:32:37;16.38;;;9.80;;
40122;SDS011;25832;45.490;4.912;2023-04-03T06:35:03;19.73;;;9.27;;
40122;SDS011;25832;45.490;4.912;2023-04-03T06:37:29;22.73;;;11.60;;
40122;SDS011;25832;45.490;4.912;2023-04-03T06:39:56;21.25;;;12.10;;
40122;SDS011;25832;45.490;4.912;2023-04-03T06:42:22;27.88;;;14.50;;
40122;SDS011;25832;45.490;4.912;2023-04-03T06:44:48;28.25;;;14.73;;
40122;SDS011;25832;45.490;4.912;2023-04-03T06:47:14;29.70;;;15.60;;
40122;SDS011;25832;45.490;4.912;2023-04-03T06:49:41;28.55;;;15.52;;
40122;SDS011;25832;45.490;4.912;2023-04-03T06:52:07;27.55;;;15.25;;
40122;SDS011;25832;45.490;4.912;2023-04-03T06:54:33;27.92;;;15.05;;
40122;SDS011;25832;45.490;4.912;2023-04-03T06:57:00;26.00;;;13.15;;
40122;SDS011;25832;45.490;4.912;2023-04-03T06:59:26;21.40;;;11.85;;
40122;SDS011;25832;45.490;4.912;2023-04-03T07:01:52;22.42;;;12.55;;
40122;SDS011;25832;45.490;4.912;2023-04-03T07:04:17;21.80;;;12.23;;
40122;SDS011;25832;45.490;4.912;2023-04-03T07:06:45;20.17;;;12.40;;
40122;SDS011;25832;45.490;4.912;2023-04-03T07:09:11;23.50;;;13.18;;
40122;SDS011;25832;45.490;4.912;2023-04-03T07:11:38;21.27;;;12.40;;
40122;SDS011;25832;45.490;4.912;2023-04-03T07:25:17;19.80;;;12.50;;
40122;SDS011;25832;45.490;4.912;2023-04-03T07:27:42;23.48;;;13.85;;
40122;SDS011;25832;45.490;4.912;2023-04-03T07:30:08;20.92;;;12.20;;
40122;SDS011;25832;45.490;4.912;2023-04-03T07:32:34;22.38;;;13.35;;
40122;SDS011;25832;45.490;4.912;2023-04-03T07:35:00;21.35;;;13.20;;
40122;SDS011;25832;45.490;4.912;2023-04-03T07:37:26;20.20;;;12.50;;
40122;SDS011;25832;45.490;4.912;2023-04-03T07:39:52;21.67;;;11.85;;
40122;SDS011;25832;45.490;4.912;2023-04-03T07:42:20;19.60;;;13.10;;
40122;SDS011;25832;45.490;4.912;2023-04-03T07:44:46;18.90;;;11.55;;
40122;SDS011;25832;45.490;4.912;2023-04-03T07:47:12;19.98;;;11.43;;
40122;SDS011;25832;45.490;4.912;2023-04-03T07:49:39;19.23;;;11.05;;
40122;SDS011;25832;45.490;4.912;2023-04-03T07:52:05;18.70;;;11.93;;
40122;SDS011;25832;45.490;4.912;2023-04-03T07:54:32;23.25;;;11.82;;
40122;SDS011;25832;45.490;4.912;2023-04-03T07:56:58;16.88;;;11.25;;
40122;SDS011;25832;45.490;4.912;2023-04-03T07:59:24;22.92;;;13.07;;
40122;SDS011;25832;45.490;4.912;2023-04-03T08:01:50;17.95;;;11.05;;
40122;SDS011;25832;45.490;4.912;2023-04-03T08:04:15;20.58;;;11.98;;
40122;SDS011;25832;45.490;4.912;2023-04-03T08:06:41;20.50;;;10.43;;
40122;SDS011;25832;45.490;4.912;2023-04-03T08:09:06;18.83;;;11.32;;
40122;SDS011;25832;45.490;4.912;2023-04-03T08:11:33;18.80;;;10.23;;
40122;SDS011;25832;45.490;4.912;2023-04-03T08:13:59;17.95;;;9.63;;
40122;SDS011;25832;45.490;4.912;2023-04-03T08:16:25;20.15;;;10.55;;
40122;SDS011;25832;45.490;4.912;2023-04-03T08:18:52;17.08;;;10.27;;
40122;SDS011;25832;45.490;4.912;2023-04-03T08:21:18;21.52;;;10.95;;
40122;SDS011;25832;45.490;4.912;2023-04-03T08:23:43;21.90;;;11.85;;
40122;SDS011;25832;45.490;4.912;2023-04-03T08:26:13;20.35;;;11.80;;
40122;SDS011;25832;45.490;4.912;2023-04-03T08:28:40;23.85;;;13.60;;
40122;SDS011;25832;45.490;4.912;2023-04-03T08:31:08;20.85;;;12.65;;
40122;SDS011;25832;45.490;4.912;2023-04-03T08:33:39;22.98;;;13.13;;
40122;SDS011;25832;45.490;4.912;2023-04-03T08:36:06;25.17;;;12.20;;
40122;SDS011;25832;45.490;4.912;2023-04-03T08:38:40;22.73;;;12.07;;
40122;SDS011;25832;45.490;4.912;2023-04-03T08:43:58;20.10;;;11.63;;
40122;SDS011;25832;45.490;4.912;2023-04-03T08:46:52;21.83;;;12.93;;
40122;SDS011;25832;45.490;4.912;2023-04-03T08:49:42;26.55;;;11.55;;
40122;SDS011;25832;45.490;4.912;2023-04-03T08:52:13;18.20;;;10.80;;
40122;SDS011;25832;45.490;4.912;2023-04-03T08:55:01;22.30;;;11.63;;
40122;SDS011;25832;45.490;4.912;2023-04-03T08:57:45;21.10;;;12.00;;
40122;SDS011;25832;45.490;4.912;2023-04-03T09:02:48;25.00;;;12.60;;
40122;SDS011;25832;45.490;4.912;2023-04-03T09:05:37;20.65;;;11.93;;
40122;SDS011;25832;45.490;4.912;2023-04-03T09:11:06;19.25;;;10.88;;
40122;SDS011;25832;45.490;4.912;2023-04-03T09:19:22;22.00;;;13.27;;
40122;SDS011;25832;45.490;4.912;2023-04-03T09:21:59;19.58;;;11.43;;
40122;SDS011;25832;45.490;4.912;2023-04-03T09:24:34;22.83;;;11.88;;
40122;SDS011;25832;45.490;4.912;2023-04-03T09:27:04;18.80;;;11.45;;
40122;SDS011;25832;45.490;4.912;2023-04-03T09:29:35;17.40;;;10.23;;
40122;SDS011;25832;45.490;4.912;2023-04-03T09:32:39;16.88;;;9.30;;
40122;SDS011;25832;45.490;4.912;2023-04-03T09:34:59;19.17;;;9.40;;
40122;SDS011;25832;45.490;4.912;2023-04-03T09:37:44;13.80;;;8.07;;
40122;SDS011;25832;45.490;4.912;2023-04-03T09:42:51;17.48;;;8.13;;
40122;SDS011;25832;45.490;4.912;2023-04-03T09:45:28;14.55;;;8.65;;
40122;SDS011;25832;45.490;4.912;2023-04-03T09:48:15;15.27;;;10.10;;
40122;SDS011;25832;45.490;4.912;2023-04-03T09:50:57;17.95;;;11.18;;
40122;SDS011;25832;45.490;4.912;2023-04-03T09:56:00;19.95;;;11.45;;
40122;SDS011;25832;45.490;4.912;2023-04-03T10:01:03;19.17;;;11.35;;
40122;SDS011;25832;45.490;4.912;2023-04-03T10:06:04;20.20;;;11.95;;
40122;SDS011;25832;45.490;4.912;2023-04-03T10:08:58;20.85;;;11.88;;
40122;SDS011;25832;45.490;4.912;2023-04-03T10:11:26;15.38;;;9.75;;
40122;SDS011;25832;45.490;4.912;2023-04-03T10:13:53;17.30;;;10.20;;
40122;SDS011;25832;45.490;4.912;2023-04-03T10:25:11;23.02;;;13.88;;
40122;SDS011;25832;45.490;4.912;2023-04-03T10:28:01;22.70;;;14.88;;
40122;SDS011;25832;45.490;4.912;2023-04-03T10:30:39;24.92;;;12.38;;
40122;SDS011;25832;45.490;4.912;2023-04-03T10:33:36;21.13;;;12.93;;
40122;SDS011;25832;45.490;4.912;2023-04-03T10:50:08;18.83;;;10.55;;
40122;SDS011;25832;45.490;4.912;2023-04-03T10:58:06;14.80;;;10.55;;
40122;SDS011;25832;45.490;4.912;2023-04-03T11:00:40;19.67;;;10.75;;
40122;SDS011;25832;45.490;4.912;2023-04-03T11:03:11;18.45;;;10.57;;
40122;SDS011;25832;45.490;4.912;2023-04-03T11:05:58;17.77;;;10.57;;
40122;SDS011;25832;45.490;4.912;2023-04-03T11:11:00;16.48;;;11.18;;
40122;SDS011;25832;45.490;4.912;2023-04-03T11:13:55;17.23;;;10.95;;
40122;SDS011;25832;45.490;4.912;2023-04-03T11:16:45;14.45;;;9.90;;
40122;SDS011;25832;45.490;4.912;2023-04-03T11:22:00;14.70;;;8.43;;
40122;SDS011;25832;45.490;4.912;2023-04-03T11:24:32;13.13;;;9.68;;
40122;SDS011;25832;45.490;4.912;2023-04-03T11:26:59;13.93;;;8.63;;
40122;SDS011;25832;45.490;4.912;2023-04-03T11:29:35;13.65;;;8.82;;
40122;SDS011;25832;45.490;4.912;2023-04-03T11:34:47;19.75;;;9.70;;
40122;SDS011;25832;45.490;4.912;2023-04-03T11:39:56;14.13;;;9.35;;
40122;SDS011;25832;45.490;4.912;2023-04-03T11:42:27;15.30;;;8.90;;
40122;SDS011;25832;45.490;4.912;2023-04-03T11:50:30;15.45;;;10.27;;
40122;SDS011;25832;45.490;4.912;2023-04-03T12:05:51;14.05;;;8.68;;
40122;SDS011;25832;45.490;4.912;2023-04-03T12:08:43;11.95;;;7.25;;
40122;SDS011;25832;45.490;4.912;2023-04-03T12:16:23;10.07;;;7.75;;
40122;SDS011;25832;45.490;4.912;2023-04-03T12:23:56;11.18;;;7.70;;
40122;SDS011;25832;45.490;4.912;2023-04-03T12:26:31;12.73;;;7.80;;
40122;SDS011;25832;45.490;4.912;2023-04-03T12:29:23;12.50;;;7.88;;
40122;SDS011;25832;45.490;4.912;2023-04-03T12:51:38;10.77;;;7.82;;
40122;SDS011;25832;45.490;4.912;2023-04-03T12:54:12;10.73;;;6.57;;
40122;SDS011;25832;45.490;4.912;2023-04-03T12:56:48;11.00;;;6.20;;
40122;SDS011;25832;45.490;4.912;2023-04-03T12:59:15;8.07;;;6.13;;
40122;SDS011;25832;45.490;4.912;2023-04-03T13:01:55;9.48;;;6.78;;
40122;SDS011;25832;45.490;4.912;2023-04-03T13:04:25;9.23;;;6.68;;
40122;SDS011;25832;45.490;4.912;2023-04-03T13:06:53;11.60;;;6.20;;
40122;SDS011;25832;45.490;4.912;2023-04-03T13:09:20;9.65;;;6.75;;
40122;SDS011;25832;45.490;4.912;2023-04-03T13:11:58;11.00;;;7.18;;
40122;SDS011;25832;45.490;4.912;2023-04-03T13:14:27;9.25;;;6.57;;
40122;SDS011;25832;45.490;4.912;2023-04-03T13:17:04;11.50;;;6.93;;
40122;SDS011;25832;45.490;4.912;2023-04-03T13:19:37;12.00;;;6.72;;
40122;SDS011;25832;45.490;4.912;2023-04-03T13:22:04;10.27;;;6.63;;
40122;SDS011;25832;45.490;4.912;2023-04-03T13:24:33;13.43;;;6.47;;
40122;SDS011;25832;45.490;4.912;2023-04-03T13:27:02;9.38;;;5.85;;
40122;SDS011;25832;45.490;4.912;2023-04-03T13:29:29;8.07;;;5.05;;
40122;SDS011;25832;45.490;4.912;2023-04-03T13:31:58;11.95;;;5.95;;
40122;SDS011;25832;45.490;4.912;2023-04-03T13:34:26;8.32;;;5.75;;
40122;SDS011;25832;45.490;4.912;2023-04-03T13:39:30;8.98;;;6.15;;
40122;SDS011;25832;45.490;4.912;2023-04-03T13:41:58;7.63;;;6.00;;
40122;SDS011;25832;45.490;4.912;2023-04-03T13:44:31;14.25;;;5.43;;
40122;SDS011;25832;45.490;4.912;2023-04-03T13:47:14;8.70;;;5.28;;
40122;SDS011;25832;45.490;4.912;2023-04-03T13:49:58;9.88;;;6.20;;
40122;SDS011;25832;45.490;4.912;2023-04-03T13:52:26;7.00;;;5.60;;
40122;SDS011;25832;45.490;4.912;2023-04-03T13:54:56;6.43;;;4.25;;
40122;SDS011;25832;45.490;4.912;2023-04-03T13:57:24;6.80;;;3.97;;
40122;SDS011;25832;45.490;4.912;2023-04-03T13:59:49;6.65;;;4.88;;
40122;SDS011;25832;45.490;4.912;2023-04-03T14:02:49;8.35;;;4.75;;
40122;SDS011;25832;45.490;4.912;2023-04-03T14:05:08;7.03;;;3.97;;
40122;SDS011;25832;45.490;4.912;2023-04-03T14:07:33;6.38;;;4.85;;
40122;SDS011;25832;45.490;4.912;2023-04-03T14:09:59;10.75;;;4.53;;
40122;SDS011;25832;45.490;4.912;2023-04-03T14:12:26;6.60;;;4.13;;
40122;SDS011;25832;45.490;4.912;2023-04-03T14:15:06;8.77;;;3.92;;
40122;SDS011;25832;45.490;4.912;2023-04-03T14:17:49;6.95;;;4.30;;
40122;SDS011;25832;45.490;4.912;2023-04-03T14:20:17;6.07;;;3.83;;
40122;SDS011;25832;45.490;4.912;2023-04-03T14:22:46;4.13;;;3.35;;
40122;SDS011;25832;45.490;4.912;2023-04-03T14:25:14;5.55;;;3.47;;
40122;SDS011;25832;45.490;4.912;2023-04-03T14:27:45;4.57;;;3.58;;
40122;SDS011;25832;45.490;4.912;2023-04-03T14:30:15;7.00;;;4.15;;
40122;SDS011;25832;45.490;4.912;2023-04-03T14:33:02;6.57;;;4.22;;
40122;SDS011;25832;45.490;4.912;2023-04-03T14:35:27;7.55;;;4.10;;
40122;SDS011;25832;45.490;4.912;2023-04-03T14:37:53;4.97;;;3.72;;
40122;SDS011;25832;45.490;4.912;2023-04-03T14:40:24;5.22;;;3.72;;
40122;SDS011;25832;45.490;4.912;2023-04-03T14:42:52;6.63;;;4.18;;
40122;SDS011;25832;45.490;4.912;2023-04-03T14:45:20;6.95;;;3.67;;
40122;SDS011;25832;45.490;4.912;2023-04-03T14:47:50;7.55;;;3.38;;
40122;SDS011;25832;45.490;4.912;2023-04-03T14:50:18;7.90;;;4.03;;
40122;SDS011;25832;45.490;4.912;2023-04-03T14:52:47;5.55;;;3.88;;
40122;SDS011;25832;45.490;4.912;2023-04-03T14:55:14;6.80;;;3.90;;
40122;SDS011;25832;45.490;4.912;2023-04-03T14:57:42;10.07;;;3.80;;
40122;SDS011;25832;45.490;4.912;2023-04-03T15:00:12;5.05;;;3.33;;
40122;SDS011;25832;45.490;4.912;2023-04-03T15:02:45;5.85;;;3.92;;
40122;SDS011;25832;45.490;4.912;2023-04-03T15:05:12;6.60;;;3.65;;
40122;SDS011;25832;45.490;4.912;2023-04-03T15:07:40;4.97;;;3.67;;
40122;SDS011;25832;45.490;4.912;2023-04-03T15:10:18;5.97;;;3.80;;
40122;SDS011;25832;45.490;4.912;2023-04-03T15:12:45;6.43;;;3.60;;
40122;SDS011;25832;45.490;4.912;2023-04-03T15:15:12;4.82;;;3.25;;
40122;SDS011;25832;45.490;4.912;2023-04-03T15:17:39;8.07;;;4.70;;
40122;SDS011;25832;45.490;4.912;2023-04-03T15:20:15;4.97;;;3.67;;
40122;SDS011;25832;45.490;4.912;2023-04-03T15:22:43;5.35;;;3.90;;
40122;SDS011;25832;45.490;4.912;2023-04-03T15:25:09;5.18;;;3.70;;
40122;SDS011;25832;45.490;4.912;2023-04-03T15:27:35;4.35;;;3.20;;
40122;SDS011;25832;45.490;4.912;2023-04-03T15:30:02;5.32;;;3.25;;
40122;SDS011;25832;45.490;4.912;2023-04-03T15:32:29;5.03;;;3.70;;
40122;SDS011;25832;45.490;4.912;2023-04-03T15:34:55;5.57;;;3.90;;
40122;SDS011;25832;45.490;4.912;2023-04-03T15:37:21;5.80;;;3.20;;
40122;SDS011;25832;45.490;4.912;2023-04-03T15:39:47;4.43;;;3.28;;
40122;SDS011;25832;45.490;4.912;2023-04-03T15:42:12;5.63;;;3.92;;
40122;SDS011;25832;45.490;4.912;2023-04-03T15:44:38;4.70;;;3.08;;
40122;SDS011;25832;45.490;4.912;2023-04-03T15:47:04;5.10;;;3.55;;
40122;SDS011;25832;45.490;4.912;2023-04-03T15:49:30;7.03;;;3.20;;
40122;SDS011;25832;45.490;4.912;2023-04-03T15:51:58;6.30;;;4.50;;
40122;SDS011;25832;45.490;4.912;2023-04-03T15:54:24;5.55;;;3.58;;
40122;SDS011;25832;45.490;4.912;2023-04-03T15:56:51;8.52;;;3.50;;
40122;SDS011;25832;45.490;4.912;2023-04-03T15:59:17;4.72;;;3.42;;
40122;SDS011;25832;45.490;4.912;2023-04-03T16:01:43;5.70;;;3.92;;
40122;SDS011;25832;45.490;4.912;2023-04-03T16:04:09;5.72;;;3.80;;
40122;SDS011;25832;45.490;4.912;2023-04-03T16:06:36;4.70;;;3.50;;
40122;SDS011;25832;45.490;4.912;2023-04-03T16:09:03;5.65;;;3.90;;
40122;SDS011;25832;45.490;4.912;2023-04-03T16:11:29;5.28;;;4.63;;
40122;SDS011;25832;45.490;4.912;2023-04-03T16:13:55;7.45;;;4.40;;
40122;SDS011;25832;45.490;4.912;2023-04-03T16:16:21;5.25;;;3.60;;
40122;SDS011;25832;45.490;4.912;2023-04-03T16:18:48;7.28;;;3.75;;
40122;SDS011;25832;45.490;4.912;2023-04-03T16:21:14;5.70;;;3.53;;
40122;SDS011;25832;45.490;4.912;2023-04-03T16:23:41;4.28;;;2.45;;
40122;SDS011;25832;45.490;4.912;2023-04-03T16:26:07;5.38;;;3.00;;
40122;SDS011;25832;45.490;4.912;2023-04-03T16:28:33;4.13;;;2.30;;
40122;SDS011;25832;45.490;4.912;2023-04-03T16:30:59;3.38;;;2.67;;
40122;SDS011;25832;45.490;4.912;2023-04-03T16:33:26;3.92;;;2.80;;
40122;SDS011;25832;45.490;4.912;2023-04-03T16:35:51;4.72;;;2.97;;
40122;SDS011;25832;45.490;4.912;2023-04-03T16:38:17;3.47;;;2.55;;
40122;SDS011;25832;45.490;4.912;2023-04-03T16:40:47;4.07;;;2.47;;
40122;SDS011;25832;45.490;4.912;2023-04-03T16:43:13;4.53;;;3.60;;
40122;SDS011;25832;45.490;4.912;2023-04-03T16:45:40;5.63;;;3.10;;
40122;SDS011;25832;45.490;4.912;2023-04-03T16:48:05;4.32;;;2.80;;
40122;SDS011;25832;45.490;4.912;2023-04-03T16:50:31;3.67;;;2.75;;
40122;SDS011;25832;45.490;4.912;2023-04-03T16:52:57;6.25;;;2.83;;
40122;SDS011;25832;45.490;4.912;2023-04-03T16:55:23;4.55;;;3.53;;
40122;SDS011;25832;45.490;4.912;2023-04-03T16:57:48;5.22;;;3.15;;
40122;SDS011;25832;45.490;4.912;2023-04-03T17:00:14;6.07;;;2.67;;
40122;SDS011;25832;45.490;4.912;2023-04-03T17:02:41;5.63;;;2.80;;
40122;SDS011;25832;45.490;4.912;2023-04-03T17:05:07;5.38;;;2.88;;